sensor_id;sensor_type;location;lat;lon;timestamp;temperature;humidity
59311;DHT22;45078;51.654;21.250;2023-03-04T00:01:54;0.30;99.90
59311;DHT22;45078;51.654;21.250;2023-03-04T00:04:20;0.30;99.90
59311;DHT22;45078;51.654;21.250;2023-03-04T00:06:46;0.40;99.90
59311;DHT22;45078;51.654;21.250;2023-03-04T00:09:12;0.40;99.90
59311;DHT22;45078;51.654;21.250;2023-03-04T00:11:38;0.30;99.90
59311;DHT22;45078;51.654;21.250;2023-03-04T00:14:04;0.30;99.90
59311;DHT22;45078;51.654;21.250;2023-03-04T00:16:30;0.30;99.90
59311;DHT22;45078;51.654;21.250;2023-03-04T00:18:56;0.40;99.90
59311;DHT22;45078;51.654;21.250;2023-03-04T00:21:22;0.30;99.90
59311;DHT22;45078;51.654;21.250;2023-03-04T00:23:49;0.30;99.90
59311;DHT22;45078;51.654;21.250;2023-03-04T00:26:15;0.30;99.90
59311;DHT22;45078;51.654;21.250;2023-03-04T00:28:42;0.30;99.90
59311;DHT22;45078;51.654;21.250;2023-03-04T00:31:08;0.30;99.90
59311;DHT22;45078;51.654;21.250;2023-03-04T00:33:34;0.30;99.90
59311;DHT22;45078;51.654;21.250;2023-03-04T00:36:00;0.40;99.90
59311;DHT22;45078;51.654;21.250;2023-03-04T00:38:26;0.30;99.90
59311;DHT22;45078;51.654;21.250;2023-03-04T00:40:52;0.30;99.90
59311;DHT22;45078;51.654;21.250;2023-03-04T00:43:18;0.30;99.90
59311;DHT22;45078;51.654;21.250;2023-03-04T00:45:44;0.40;99.90
59311;DHT22;45078;51.654;21.250;2023-03-04T00:48:10;0.40;99.90
59311;DHT22;45078;51.654;21.250;2023-03-04T00:50:36;0.30;99.90
59311;DHT22;45078;51.654;21.250;2023-03-04T00:53:02;0.30;99.90
59311;DHT22;45078;51.654;21.250;2023-03-04T00:55:28;0.30;99.90
59311;DHT22;45078;51.654;21.250;2023-03-04T00:57:53;0.30;99.90
59311;DHT22;45078;51.654;21.250;2023-03-04T01:00:20;0.30;99.90
59311;DHT22;45078;51.654;21.250;2023-03-04T01:02:45;0.30;99.90
59311;DHT22;45078;51.654;21.250;2023-03-04T01:05:11;0.30;99.90
59311;DHT22;45078;51.654;21.250;2023-03-04T01:07:37;0.30;99.90
59311;DHT22;45078;51.654;21.250;2023-03-04T01:10:05;0.30;99.90
59311;DHT22;45078;51.654;21.250;2023-03-04T01:12:31;0.30;99.90
59311;DHT22;45078;51.654;21.250;2023-03-04T01:14:57;0.30;99.90
59311;DHT22;45078;51.654;21.250;2023-03-04T01:17:23;0.40;99.90
59311;DHT22;45078;51.654;21.250;2023-03-04T01:19:49;0.40;99.90
59311;DHT22;45078;51.654;21.250;2023-03-04T01:22:14;0.40;99.90
59311;DHT22;45078;51.654;21.250;2023-03-04T01:24:42;0.40;99.90
59311;DHT22;45078;51.654;21.250;2023-03-04T01:27:07;0.40;99.90
59311;DHT22;45078;51.654;21.250;2023-03-04T01:29:33;0.40;99.90
59311;DHT22;45078;51.654;21.250;2023-03-04T01:31:59;0.40;99.90
59311;DHT22;45078;51.654;21.250;2023-03-04T01:34:25;0.40;99.90
59311;DHT22;45078;51.654;21.250;2023-03-04T01:36:50;0.40;99.90
59311;DHT22;45078;51.654;21.250;2023-03-04T01:39:16;0.40;99.90
59311;DHT22;45078;51.654;21.250;2023-03-04T01:41:42;0.40;99.90
59311;DHT22;45078;51.654;21.250;2023-03-04T01:44:09;0.40;99.90
59311;DHT22;45078;51.654;21.250;2023-03-04T01:46:36;0.40;99.90
59311;DHT22;45078;51.654;21.250;2023-03-04T01:49:02;0.40;99.90
59311;DHT22;45078;51.654;21.250;2023-03-04T01:51:28;0.40;99.90
59311;DHT22;45078;51.654;21.250;2023-03-04T01:53:54;0.40;99.90
59311;DHT22;45078;51.654;21.250;2023-03-04T01:59:21;0.40;99.90
59311;DHT22;45078;51.654;21.250;2023-03-04T02:01:50;0.40;99.90
59311;DHT22;45078;51.654;21.250;2023-03-04T02:04:18;0.40;99.90
59311;DHT22;45078;51.654;21.250;2023-03-04T02:06:45;0.40;99.90
59311;DHT22;45078;51.654;21.250;2023-03-04T02:09:13;0.40;99.90
59311;DHT22;45078;51.654;21.250;2023-03-04T02:11:39;0.40;99.90
59311;DHT22;45078;51.654;21.250;2023-03-04T02:14:05;0.40;99.90
59311;DHT22;45078;51.654;21.250;2023-03-04T02:16:32;0.40;99.90
59311;DHT22;45078;51.654;21.250;2023-03-04T02:18:58;0.40;99.90
59311;DHT22;45078;51.654;21.250;2023-03-04T02:21:27;0.40;99.90
59311;DHT22;45078;51.654;21.250;2023-03-04T02:26:29;0.40;99.90
59311;DHT22;45078;51.654;21.250;2023-03-04T02:28:57;0.40;99.90
59311;DHT22;45078;51.654;21.250;2023-03-04T02:31:42;0.40;99.90
59311;DHT22;45078;51.654;21.250;2023-03-04T02:34:21;0.50;99.90
59311;DHT22;45078;51.654;21.250;2023-03-04T02:36:50;0.50;99.90
59311;DHT22;45078;51.654;21.250;2023-03-04T02:44:26;0.50;99.90
59311;DHT22;45078;51.654;21.250;2023-03-04T02:46:53;0.50;99.90
59311;DHT22;45078;51.654;21.250;2023-03-04T02:49:20;0.50;99.90
59311;DHT22;45078;51.654;21.250;2023-03-04T02:51:51;0.50;99.90
59311;DHT22;45078;51.654;21.250;2023-03-04T02:54:22;0.50;99.90
59311;DHT22;45078;51.654;21.250;2023-03-04T02:56:50;0.50;99.90
59311;DHT22;45078;51.654;21.250;2023-03-04T02:59:17;0.50;99.90
59311;DHT22;45078;51.654;21.250;2023-03-04T03:01:42;0.50;99.90
59311;DHT22;45078;51.654;21.250;2023-03-04T03:04:09;0.50;99.90
59311;DHT22;45078;51.654;21.250;2023-03-04T03:06:35;0.60;99.90
59311;DHT22;45078;51.654;21.250;2023-03-04T03:09:00;0.60;99.90
59311;DHT22;45078;51.654;21.250;2023-03-04T03:11:27;0.50;99.90
59311;DHT22;45078;51.654;21.250;2023-03-04T03:13:52;0.60;99.90
59311;DHT22;45078;51.654;21.250;2023-03-04T03:16:18;0.60;99.90
59311;DHT22;45078;51.654;21.250;2023-03-04T03:18:44;0.50;99.90
59311;DHT22;45078;51.654;21.250;2023-03-04T03:21:09;0.50;99.90
59311;DHT22;45078;51.654;21.250;2023-03-04T03:23:35;0.50;99.90
59311;DHT22;45078;51.654;21.250;2023-03-04T03:26:01;0.60;99.90
59311;DHT22;45078;51.654;21.250;2023-03-04T03:28:27;0.60;99.90
59311;DHT22;45078;51.654;21.250;2023-03-04T03:30:53;0.60;99.90
59311;DHT22;45078;51.654;21.250;2023-03-04T03:33:19;0.60;99.90
59311;DHT22;45078;51.654;21.250;2023-03-04T03:35:45;0.60;99.90
59311;DHT22;45078;51.654;21.250;2023-03-04T03:38:11;0.60;99.90
59311;DHT22;45078;51.654;21.250;2023-03-04T03:40:37;0.60;99.90
59311;DHT22;45078;51.654;21.250;2023-03-04T03:43:03;0.60;99.90
59311;DHT22;45078;51.654;21.250;2023-03-04T03:45:28;0.60;99.90
59311;DHT22;45078;51.654;21.250;2023-03-04T03:47:54;0.70;99.90
59311;DHT22;45078;51.654;21.250;2023-03-04T03:50:20;0.70;99.90
59311;DHT22;45078;51.654;21.250;2023-03-04T03:52:46;0.60;99.90
59311;DHT22;45078;51.654;21.250;2023-03-04T03:55:12;0.70;99.90
59311;DHT22;45078;51.654;21.250;2023-03-04T03:57:37;0.70;99.90
59311;DHT22;45078;51.654;21.250;2023-03-04T04:00:05;0.70;99.90
59311;DHT22;45078;51.654;21.250;2023-03-04T04:02:31;0.70;99.90
59311;DHT22;45078;51.654;21.250;2023-03-04T04:04:57;0.70;99.90
59311;DHT22;45078;51.654;21.250;2023-03-04T04:07:22;0.70;99.90
59311;DHT22;45078;51.654;21.250;2023-03-04T04:09:48;0.80;99.90
59311;DHT22;45078;51.654;21.250;2023-03-04T04:12:15;0.80;99.90
59311;DHT22;45078;51.654;21.250;2023-03-04T04:14:41;0.80;99.90
59311;DHT22;45078;51.654;21.250;2023-03-04T04:17:08;0.80;99.90
59311;DHT22;45078;51.654;21.250;2023-03-04T04:19:34;0.80;99.90
59311;DHT22;45078;51.654;21.250;2023-03-04T04:22:00;0.80;99.90
59311;DHT22;45078;51.654;21.250;2023-03-04T04:24:26;0.80;99.90
59311;DHT22;45078;51.654;21.250;2023-03-04T04:26:51;0.80;99.90
59311;DHT22;45078;51.654;21.250;2023-03-04T04:29:17;0.90;99.90
59311;DHT22;45078;51.654;21.250;2023-03-04T04:31:43;0.90;99.90
59311;DHT22;45078;51.654;21.250;2023-03-04T04:34:09;0.90;99.90
59311;DHT22;45078;51.654;21.250;2023-03-04T04:36:35;0.90;99.90
59311;DHT22;45078;51.654;21.250;2023-03-04T04:39:02;0.90;99.90
59311;DHT22;45078;51.654;21.250;2023-03-04T04:41:39;1.00;99.90
59311;DHT22;45078;51.654;21.250;2023-03-04T04:44:05;0.90;99.90
59311;DHT22;45078;51.654;21.250;2023-03-04T04:46:31;0.90;99.90
59311;DHT22;45078;51.654;21.250;2023-03-04T04:48:57;1.00;99.90
59311;DHT22;45078;51.654;21.250;2023-03-04T04:51:23;1.00;99.90
59311;DHT22;45078;51.654;21.250;2023-03-04T04:53:49;1.00;99.90
59311;DHT22;45078;51.654;21.250;2023-03-04T04:56:18;1.00;99.90
59311;DHT22;45078;51.654;21.250;2023-03-04T04:58:44;1.00;99.90
59311;DHT22;45078;51.654;21.250;2023-03-04T05:01:11;1.00;99.90
59311;DHT22;45078;51.654;21.250;2023-03-04T05:03:38;1.10;99.90
59311;DHT22;45078;51.654;21.250;2023-03-04T05:06:06;1.10;99.90
59311;DHT22;45078;51.654;21.250;2023-03-04T05:08:33;1.10;99.90
59311;DHT22;45078;51.654;21.250;2023-03-04T05:11:00;1.10;99.90
59311;DHT22;45078;51.654;21.250;2023-03-04T05:13:26;1.10;99.90
59311;DHT22;45078;51.654;21.250;2023-03-04T05:15:54;1.20;99.90
59311;DHT22;45078;51.654;21.250;2023-03-04T05:18:21;1.20;99.90
59311;DHT22;45078;51.654;21.250;2023-03-04T05:20:51;1.20;99.90
59311;DHT22;45078;51.654;21.250;2023-03-04T05:23:17;1.20;99.90
59311;DHT22;45078;51.654;21.250;2023-03-04T05:25:43;1.20;99.90
59311;DHT22;45078;51.654;21.250;2023-03-04T05:28:09;1.20;99.90
59311;DHT22;45078;51.654;21.250;2023-03-04T05:30:38;1.20;99.90
59311;DHT22;45078;51.654;21.250;2023-03-04T05:33:04;1.30;99.90
59311;DHT22;45078;51.654;21.250;2023-03-04T05:35:30;1.30;99.90
59311;DHT22;45078;51.654;21.250;2023-03-04T05:37:56;1.30;99.90
59311;DHT22;45078;51.654;21.250;2023-03-04T05:40:21;1.30;99.90
59311;DHT22;45078;51.654;21.250;2023-03-04T05:42:50;1.30;99.90
59311;DHT22;45078;51.654;21.250;2023-03-04T05:45:16;1.30;99.90
59311;DHT22;45078;51.654;21.250;2023-03-04T05:47:42;1.40;99.90
59311;DHT22;45078;51.654;21.250;2023-03-04T05:50:08;1.40;99.90
59311;DHT22;45078;51.654;21.250;2023-03-04T05:52:34;1.40;99.90
59311;DHT22;45078;51.654;21.250;2023-03-04T05:55:00;1.40;99.90
59311;DHT22;45078;51.654;21.250;2023-03-04T05:57:26;1.40;99.90
59311;DHT22;45078;51.654;21.250;2023-03-04T05:59:51;1.40;99.90
59311;DHT22;45078;51.654;21.250;2023-03-04T06:02:17;1.50;99.90
59311;DHT22;45078;51.654;21.250;2023-03-04T06:04:43;1.50;99.90
59311;DHT22;45078;51.654;21.250;2023-03-04T06:07:09;1.50;99.90
59311;DHT22;45078;51.654;21.250;2023-03-04T06:09:34;1.50;99.90
59311;DHT22;45078;51.654;21.250;2023-03-04T06:12:00;1.50;99.90
59311;DHT22;45078;51.654;21.250;2023-03-04T06:14:26;1.50;99.90
59311;DHT22;45078;51.654;21.250;2023-03-04T06:16:52;1.50;99.90
59311;DHT22;45078;51.654;21.250;2023-03-04T06:19:17;1.60;99.90
59311;DHT22;45078;51.654;21.250;2023-03-04T06:21:43;1.60;99.90
59311;DHT22;45078;51.654;21.250;2023-03-04T06:24:09;1.60;99.90
59311;DHT22;45078;51.654;21.250;2023-03-04T06:26:35;1.50;99.90
59311;DHT22;45078;51.654;21.250;2023-03-04T06:29:00;1.50;99.90
59311;DHT22;45078;51.654;21.250;2023-03-04T06:31:26;1.50;99.90
59311;DHT22;45078;51.654;21.250;2023-03-04T06:33:52;1.50;99.90
59311;DHT22;45078;51.654;21.250;2023-03-04T06:36:18;1.50;99.90
59311;DHT22;45078;51.654;21.250;2023-03-04T06:38:44;1.60;99.90
59311;DHT22;45078;51.654;21.250;2023-03-04T06:41:10;1.60;99.90
59311;DHT22;45078;51.654;21.250;2023-03-04T06:43:37;1.60;99.90
59311;DHT22;45078;51.654;21.250;2023-03-04T06:46:04;1.60;99.90
59311;DHT22;45078;51.654;21.250;2023-03-04T06:48:30;1.60;99.90
59311;DHT22;45078;51.654;21.250;2023-03-04T06:50:56;1.60;99.90
59311;DHT22;45078;51.654;21.250;2023-03-04T06:53:22;1.60;99.90
59311;DHT22;45078;51.654;21.250;2023-03-04T06:55:51;1.70;99.90
59311;DHT22;45078;51.654;21.250;2023-03-04T06:58:16;1.70;99.90
59311;DHT22;45078;51.654;21.250;2023-03-04T07:00:43;1.70;99.90
59311;DHT22;45078;51.654;21.250;2023-03-04T07:03:10;1.70;99.90
59311;DHT22;45078;51.654;21.250;2023-03-04T07:05:37;1.70;99.90
59311;DHT22;45078;51.654;21.250;2023-03-04T07:08:02;1.70;99.90
59311;DHT22;45078;51.654;21.250;2023-03-04T07:10:28;1.70;99.90
59311;DHT22;45078;51.654;21.250;2023-03-04T07:12:54;1.60;99.90
59311;DHT22;45078;51.654;21.250;2023-03-04T07:15:20;1.70;99.90
59311;DHT22;45078;51.654;21.250;2023-03-04T07:17:45;1.70;99.90
59311;DHT22;45078;51.654;21.250;2023-03-04T07:20:11;1.70;99.90
59311;DHT22;45078;51.654;21.250;2023-03-04T07:22:37;1.70;99.90
59311;DHT22;45078;51.654;21.250;2023-03-04T07:25:04;1.70;99.90
59311;DHT22;45078;51.654;21.250;2023-03-04T07:27:30;1.70;99.90
59311;DHT22;45078;51.654;21.250;2023-03-04T07:29:56;1.70;99.90
59311;DHT22;45078;51.654;21.250;2023-03-04T07:32:22;1.60;99.90
59311;DHT22;45078;51.654;21.250;2023-03-04T07:34:47;1.60;99.90
59311;DHT22;45078;51.654;21.250;2023-03-04T07:37:13;1.70;99.90
59311;DHT22;45078;51.654;21.250;2023-03-04T07:39:39;1.70;99.90
59311;DHT22;45078;51.654;21.250;2023-03-04T07:42:05;1.70;99.90
59311;DHT22;45078;51.654;21.250;2023-03-04T07:44:31;1.70;99.90
59311;DHT22;45078;51.654;21.250;2023-03-04T07:46:56;1.70;99.90
59311;DHT22;45078;51.654;21.250;2023-03-04T07:49:22;1.60;99.90
59311;DHT22;45078;51.654;21.250;2023-03-04T07:51:48;1.60;99.90
59311;DHT22;45078;51.654;21.250;2023-03-04T07:54:14;1.70;99.90
59311;DHT22;45078;51.654;21.250;2023-03-04T07:56:39;1.70;99.90
59311;DHT22;45078;51.654;21.250;2023-03-04T07:59:06;1.70;99.90
59311;DHT22;45078;51.654;21.250;2023-03-04T08:01:35;1.70;99.90
59311;DHT22;45078;51.654;21.250;2023-03-04T08:04:04;1.70;99.90
59311;DHT22;45078;51.654;21.250;2023-03-04T08:06:31;1.70;99.90
59311;DHT22;45078;51.654;21.250;2023-03-04T08:09:00;1.70;99.90
59311;DHT22;45078;51.654;21.250;2023-03-04T08:11:27;1.70;99.90
59311;DHT22;45078;51.654;21.250;2023-03-04T08:13:54;1.80;99.90
59311;DHT22;45078;51.654;21.250;2023-03-04T08:16:22;1.80;99.90
59311;DHT22;45078;51.654;21.250;2023-03-04T08:18:51;1.70;99.90
59311;DHT22;45078;51.654;21.250;2023-03-04T08:21:19;1.70;99.90
59311;DHT22;45078;51.654;21.250;2023-03-04T08:23:46;1.80;99.90
59311;DHT22;45078;51.654;21.250;2023-03-04T08:26:36;1.80;99.90
59311;DHT22;45078;51.654;21.250;2023-03-04T08:29:02;1.80;99.90
59311;DHT22;45078;51.654;21.250;2023-03-04T08:31:32;1.80;99.90
59311;DHT22;45078;51.654;21.250;2023-03-04T08:33:57;1.80;99.90
59311;DHT22;45078;51.654;21.250;2023-03-04T08:36:23;1.90;99.90
59311;DHT22;45078;51.654;21.250;2023-03-04T08:38:49;1.90;99.90
59311;DHT22;45078;51.654;21.250;2023-03-04T08:41:15;1.90;99.90
59311;DHT22;45078;51.654;21.250;2023-03-04T08:43:42;1.90;99.90
59311;DHT22;45078;51.654;21.250;2023-03-04T08:46:08;1.90;99.90
59311;DHT22;45078;51.654;21.250;2023-03-04T08:48:36;1.90;99.90
59311;DHT22;45078;51.654;21.250;2023-03-04T08:51:09;1.90;99.90
59311;DHT22;45078;51.654;21.250;2023-03-04T08:53:36;1.90;99.90
59311;DHT22;45078;51.654;21.250;2023-03-04T08:56:03;1.90;99.90
59311;DHT22;45078;51.654;21.250;2023-03-04T08:58:28;1.90;99.90
59311;DHT22;45078;51.654;21.250;2023-03-04T09:00:54;2.00;99.90
59311;DHT22;45078;51.654;21.250;2023-03-04T09:03:20;1.90;99.90
59311;DHT22;45078;51.654;21.250;2023-03-04T09:05:47;1.90;99.90
59311;DHT22;45078;51.654;21.250;2023-03-04T09:08:14;1.90;99.90
59311;DHT22;45078;51.654;21.250;2023-03-04T09:10:40;1.90;99.90
59311;DHT22;45078;51.654;21.250;2023-03-04T09:13:06;2.00;99.90
59311;DHT22;45078;51.654;21.250;2023-03-04T09:15:33;2.00;99.90
59311;DHT22;45078;51.654;21.250;2023-03-04T09:18:02;2.00;99.90
59311;DHT22;45078;51.654;21.250;2023-03-04T09:20:29;2.00;99.90
59311;DHT22;45078;51.654;21.250;2023-03-04T09:22:56;2.00;99.90
59311;DHT22;45078;51.654;21.250;2023-03-04T09:25:21;2.00;99.90
59311;DHT22;45078;51.654;21.250;2023-03-04T09:27:49;2.00;99.90
59311;DHT22;45078;51.654;21.250;2023-03-04T09:30:15;2.00;99.90
59311;DHT22;45078;51.654;21.250;2023-03-04T09:32:40;2.00;99.90
59311;DHT22;45078;51.654;21.250;2023-03-04T09:35:06;2.00;99.90
59311;DHT22;45078;51.654;21.250;2023-03-04T09:37:33;2.10;99.90
59311;DHT22;45078;51.654;21.250;2023-03-04T09:39:58;2.10;99.90
59311;DHT22;45078;51.654;21.250;2023-03-04T09:42:27;2.10;99.90
59311;DHT22;45078;51.654;21.250;2023-03-04T09:44:54;2.10;99.90
59311;DHT22;45078;51.654;21.250;2023-03-04T09:47:22;2.10;99.90
59311;DHT22;45078;51.654;21.250;2023-03-04T09:49:55;2.10;99.90
59311;DHT22;45078;51.654;21.250;2023-03-04T09:55:11;2.20;99.90
59311;DHT22;45078;51.654;21.250;2023-03-04T10:04:12;2.30;99.90
59311;DHT22;45078;51.654;21.250;2023-03-04T10:06:12;2.30;99.90
59311;DHT22;45078;51.654;21.250;2023-03-04T10:11:39;2.20;99.90
59311;DHT22;45078;51.654;21.250;2023-03-04T10:17:22;2.20;99.90
59311;DHT22;45078;51.654;21.250;2023-03-04T10:22:40;2.30;99.90
59311;DHT22;45078;51.654;21.250;2023-03-04T10:25:24;2.20;99.90
59311;DHT22;45078;51.654;21.250;2023-03-04T10:27:58;2.30;99.90
59311;DHT22;45078;51.654;21.250;2023-03-04T10:30:47;2.30;99.90
59311;DHT22;45078;51.654;21.250;2023-03-04T10:33:18;2.30;99.90
59311;DHT22;45078;51.654;21.250;2023-03-04T10:36:40;2.40;99.90
59311;DHT22;45078;51.654;21.250;2023-03-04T10:38:40;2.40;99.90
59311;DHT22;45078;51.654;21.250;2023-03-04T10:41:22;2.40;99.90
59311;DHT22;45078;51.654;21.250;2023-03-04T10:44:04;2.50;99.90
59311;DHT22;45078;51.654;21.250;2023-03-04T10:46:41;2.50;99.90
59311;DHT22;45078;51.654;21.250;2023-03-04T10:49:09;2.50;99.90
59311;DHT22;45078;51.654;21.250;2023-03-04T10:51:53;2.60;99.90
59311;DHT22;45078;51.654;21.250;2023-03-04T10:57:03;2.50;99.90
59311;DHT22;45078;51.654;21.250;2023-03-04T10:59:45;2.60;99.90
59311;DHT22;45078;51.654;21.250;2023-03-04T11:02:35;2.70;99.90
59311;DHT22;45078;51.654;21.250;2023-03-04T11:05:20;2.70;99.90
59311;DHT22;45078;51.654;21.250;2023-03-04T11:08:14;2.70;99.90
59311;DHT22;45078;51.654;21.250;2023-03-04T11:10:41;2.70;99.90
59311;DHT22;45078;51.654;21.250;2023-03-04T11:15:49;2.70;99.90
59311;DHT22;45078;51.654;21.250;2023-03-04T11:18:17;2.70;99.90
59311;DHT22;45078;51.654;21.250;2023-03-04T11:20:47;2.70;99.90
59311;DHT22;45078;51.654;21.250;2023-03-04T11:23:21;2.70;99.90
59311;DHT22;45078;51.654;21.250;2023-03-04T11:25:57;2.70;99.90
59311;DHT22;45078;51.654;21.250;2023-03-04T11:28:38;2.80;99.90
59311;DHT22;45078;51.654;21.250;2023-03-04T11:31:13;2.70;99.90
59311;DHT22;45078;51.654;21.250;2023-03-04T11:39:51;2.80;99.90
59311;DHT22;45078;51.654;21.250;2023-03-04T11:42:43;2.80;99.90
59311;DHT22;45078;51.654;21.250;2023-03-04T11:45:58;2.90;99.90
59311;DHT22;45078;51.654;21.250;2023-03-04T11:51:01;2.90;99.90
59311;DHT22;45078;51.654;21.250;2023-03-04T11:59:25;2.90;99.90
59311;DHT22;45078;51.654;21.250;2023-03-04T12:02:19;2.90;99.90
59311;DHT22;45078;51.654;21.250;2023-03-04T12:11:00;3.10;99.90
59311;DHT22;45078;51.654;21.250;2023-03-04T12:46:00;3.40;99.90
59311;DHT22;45078;51.654;21.250;2023-03-04T12:48:35;3.30;99.90
59311;DHT22;45078;51.654;21.250;2023-03-04T12:59:36;3.40;99.90
59311;DHT22;45078;51.654;21.250;2023-03-04T13:10:44;3.50;99.90
59311;DHT22;45078;51.654;21.250;2023-03-04T13:13:37;3.50;99.90
59311;DHT22;45078;51.654;21.250;2023-03-04T13:16:42;3.50;99.90
59311;DHT22;45078;51.654;21.250;2023-03-04T13:24:58;3.50;99.90
59311;DHT22;45078;51.654;21.250;2023-03-04T13:43:38;3.50;99.90
59311;DHT22;45078;51.654;21.250;2023-03-04T13:49:03;3.50;99.90
59311;DHT22;45078;51.654;21.250;2023-03-04T13:51:42;3.50;99.90
59311;DHT22;45078;51.654;21.250;2023-03-04T13:54:13;3.50;99.90
59311;DHT22;45078;51.654;21.250;2023-03-04T13:56:47;3.50;99.90
59311;DHT22;45078;51.654;21.250;2023-03-04T13:59:31;3.50;99.90
59311;DHT22;45078;51.654;21.250;2023-03-04T14:02:19;3.60;99.90
59311;DHT22;45078;51.654;21.250;2023-03-04T14:05:10;3.70;99.90
59311;DHT22;45078;51.654;21.250;2023-03-04T14:07:36;3.60;99.90
59311;DHT22;45078;51.654;21.250;2023-03-04T14:12:45;3.60;99.90
59311;DHT22;45078;51.654;21.250;2023-03-04T14:17:38;3.70;99.90
59311;DHT22;45078;51.654;21.250;2023-03-04T14:20:38;3.80;99.90
59311;DHT22;45078;51.654;21.250;2023-03-04T14:23:31;3.70;99.90
59311;DHT22;45078;51.654;21.250;2023-03-04T14:26:06;3.70;99.90
59311;DHT22;45078;51.654;21.250;2023-03-04T14:28:32;3.60;99.90
59311;DHT22;45078;51.654;21.250;2023-03-04T14:30:58;3.50;99.90
59311;DHT22;45078;51.654;21.250;2023-03-04T14:33:25;3.40;99.90
59311;DHT22;45078;51.654;21.250;2023-03-04T14:35:58;3.40;99.90
59311;DHT22;45078;51.654;21.250;2023-03-04T14:38:27;2.90;99.90
59311;DHT22;45078;51.654;21.250;2023-03-04T14:43:31;1.90;99.90
59311;DHT22;45078;51.654;21.250;2023-03-04T14:46:01;1.80;99.90
59311;DHT22;45078;51.654;21.250;2023-03-04T14:48:32;1.80;99.90
59311;DHT22;45078;51.654;21.250;2023-03-04T14:51:00;1.80;99.90
59311;DHT22;45078;51.654;21.250;2023-03-04T14:53:31;1.80;99.90
59311;DHT22;45078;51.654;21.250;2023-03-04T14:58:25;1.90;99.90
59311;DHT22;45078;51.654;21.250;2023-03-04T15:01:17;1.90;99.90
59311;DHT22;45078;51.654;21.250;2023-03-04T15:04:02;1.90;99.90
59311;DHT22;45078;51.654;21.250;2023-03-04T15:06:34;2.00;99.90
59311;DHT22;45078;51.654;21.250;2023-03-04T15:09:02;2.00;99.90
59311;DHT22;45078;51.654;21.250;2023-03-04T15:17:33;2.10;99.90
59311;DHT22;45078;51.654;21.250;2023-03-04T15:22:55;2.00;99.90
59311;DHT22;45078;51.654;21.250;2023-03-04T15:25:21;2.00;99.90
59311;DHT22;45078;51.654;21.250;2023-03-04T15:27:49;2.10;99.90
59311;DHT22;45078;51.654;21.250;2023-03-04T15:30:27;2.10;99.90
59311;DHT22;45078;51.654;21.250;2023-03-04T15:32:57;2.10;99.90
59311;DHT22;45078;51.654;21.250;2023-03-04T15:35:26;2.10;99.90
59311;DHT22;45078;51.654;21.250;2023-03-04T15:37:52;2.10;99.90
59311;DHT22;45078;51.654;21.250;2023-03-04T15:40:40;2.10;99.90
59311;DHT22;45078;51.654;21.250;2023-03-04T15:43:09;2.20;99.90
59311;DHT22;45078;51.654;21.250;2023-03-04T15:45:37;2.10;99.90
59311;DHT22;45078;51.654;21.250;2023-03-04T15:48:05;2.10;99.90
59311;DHT22;45078;51.654;21.250;2023-03-04T15:50:36;2.00;99.90
59311;DHT22;45078;51.654;21.250;2023-03-04T15:55:49;2.00;99.90
59311;DHT22;45078;51.654;21.250;2023-03-04T15:58:15;1.90;99.90
59311;DHT22;45078;51.654;21.250;2023-03-04T16:00:41;1.90;99.90
59311;DHT22;45078;51.654;21.250;2023-03-04T16:03:16;1.90;99.90
59311;DHT22;45078;51.654;21.250;2023-03-04T16:05:44;1.90;99.90
59311;DHT22;45078;51.654;21.250;2023-03-04T16:08:15;1.90;99.90
59311;DHT22;45078;51.654;21.250;2023-03-04T16:10:41;1.90;99.90
59311;DHT22;45078;51.654;21.250;2023-03-04T16:13:14;1.80;99.90
59311;DHT22;45078;51.654;21.250;2023-03-04T16:15:40;1.80;99.90
59311;DHT22;45078;51.654;21.250;2023-03-04T16:18:08;1.80;99.90
59311;DHT22;45078;51.654;21.250;2023-03-04T16:20:34;1.70;99.90
59311;DHT22;45078;51.654;21.250;2023-03-04T16:23:01;1.70;99.90
59311;DHT22;45078;51.654;21.250;2023-03-04T16:25:28;1.70;99.90
59311;DHT22;45078;51.654;21.250;2023-03-04T16:27:56;1.70;99.90
59311;DHT22;45078;51.654;21.250;2023-03-04T16:30:25;1.70;99.90
59311;DHT22;45078;51.654;21.250;2023-03-04T16:32:52;1.70;99.90
59311;DHT22;45078;51.654;21.250;2023-03-04T16:35:19;1.60;99.90
59311;DHT22;45078;51.654;21.250;2023-03-04T16:37:46;1.60;99.90
59311;DHT22;45078;51.654;21.250;2023-03-04T16:40:14;1.50;99.90
59311;DHT22;45078;51.654;21.250;2023-03-04T16:42:41;1.50;99.90
59311;DHT22;45078;51.654;21.250;2023-03-04T16:45:18;1.50;99.90
59311;DHT22;45078;51.654;21.250;2023-03-04T16:47:44;1.50;99.90
59311;DHT22;45078;51.654;21.250;2023-03-04T16:50:15;1.50;99.90
59311;DHT22;45078;51.654;21.250;2023-03-04T16:52:43;1.40;99.90
59311;DHT22;45078;51.654;21.250;2023-03-04T16:55:22;1.40;99.90
59311;DHT22;45078;51.654;21.250;2023-03-04T16:57:48;1.30;99.90
59311;DHT22;45078;51.654;21.250;2023-03-04T17:00:16;1.30;99.90
59311;DHT22;45078;51.654;21.250;2023-03-04T17:02:43;1.30;99.90
59311;DHT22;45078;51.654;21.250;2023-03-04T17:05:16;1.30;99.90
59311;DHT22;45078;51.654;21.250;2023-03-04T17:07:43;1.30;99.90
59311;DHT22;45078;51.654;21.250;2023-03-04T17:10:09;1.30;99.90
59311;DHT22;45078;51.654;21.250;2023-03-04T17:12:36;1.20;99.90
59311;DHT22;45078;51.654;21.250;2023-03-04T17:15:02;1.20;99.90
59311;DHT22;45078;51.654;21.250;2023-03-04T17:17:32;1.10;99.90
59311;DHT22;45078;51.654;21.250;2023-03-04T17:19:58;1.10;99.90
59311;DHT22;45078;51.654;21.250;2023-03-04T17:22:24;1.10;99.90
59311;DHT22;45078;51.654;21.250;2023-03-04T17:24:50;1.00;99.90
59311;DHT22;45078;51.654;21.250;2023-03-04T17:27:17;1.00;99.90
59311;DHT22;45078;51.654;21.250;2023-03-04T17:29:43;0.90;99.90
59311;DHT22;45078;51.654;21.250;2023-03-04T17:32:09;0.80;99.90
59311;DHT22;45078;51.654;21.250;2023-03-04T17:34:35;0.80;99.90
59311;DHT22;45078;51.654;21.250;2023-03-04T17:37:00;0.80;99.90
59311;DHT22;45078;51.654;21.250;2023-03-04T17:39:26;0.80;99.90
59311;DHT22;45078;51.654;21.250;2023-03-04T17:41:52;0.80;99.90
59311;DHT22;45078;51.654;21.250;2023-03-04T17:44:18;0.70;99.90
59311;DHT22;45078;51.654;21.250;2023-03-04T17:46:47;0.60;99.90
59311;DHT22;45078;51.654;21.250;2023-03-04T17:49:13;0.60;99.90
59311;DHT22;45078;51.654;21.250;2023-03-04T17:51:38;0.60;99.90
59311;DHT22;45078;51.654;21.250;2023-03-04T17:54:05;0.50;99.90
59311;DHT22;45078;51.654;21.250;2023-03-04T17:56:34;0.40;99.90
59311;DHT22;45078;51.654;21.250;2023-03-04T17:59:02;0.40;99.90
59311;DHT22;45078;51.654;21.250;2023-03-04T18:01:29;0.50;99.90
59311;DHT22;45078;51.654;21.250;2023-03-04T18:03:55;0.50;99.90
59311;DHT22;45078;51.654;21.250;2023-03-04T18:06:21;0.50;99.90
59311;DHT22;45078;51.654;21.250;2023-03-04T18:08:50;0.50;99.90
59311;DHT22;45078;51.654;21.250;2023-03-04T18:11:16;0.40;99.90